Flight Track Log - Related Links

Times and Time Zones

All times are in EDT time to prevent confusion due to time zone crossing. See the SKW5305 flight status page for this flight to view local times or setup timezone preferences in your user account.

Time Position Orientation Groundspeed Altitude Reporting Facility
EDT Latitude Longitude Course Direction KTS MPH feet Rate Location/Type
Wed 08:30:17 PM 47.4628 -122.3078 292° West 120 138 1,300  Level Seattle Center
Wed 08:31:04 PM 47.4736 -122.3481 292° West 164 189 2,600 1,770 Climbing Seattle Center
Wed 08:32:19 PM 47.4639 -122.4386 261° West 189 217 4,900 1,809 Climbing Seattle Center
Wed 08:33:20 PM 47.4478 -122.5067 251° West 189 217 6,700 1,623 Climbing Seattle Center
Wed 08:34:21 PM 47.3958 -122.5394 203° Southwest 211 243 8,200 1,587 Climbing Seattle Center
Wed 08:35:21 PM 47.3467 -122.4914 146° Southeast 215 247 9,900 1,587 Climbing Seattle Center
Wed 08:36:22 PM 47.2981 -122.4369 143° Southeast 222 255 11,400 1,426 Climbing Seattle Center
Wed 08:37:23 PM 47.2353 -122.4247 172° South 236 272 12,800 1,475 Climbing Seattle Center
Wed 08:38:24 PM 47.1561 -122.4272 181° South 241 277 14,400 1,082 Climbing Seattle Center
Wed 08:39:25 PM 47.0864 -122.4258 179° South 254 292 15,000 295 Climbing Seattle Center
Wed 08:40:26 PM 47.0100 -122.4247 179° South 275 316 15,000  Level Seattle Center
Wed 08:41:27 PM 46.9306 -122.4225 179° South 281 323 15,000  Level Seattle Center
Wed 08:42:27 PM 46.8553 -122.4211 179° South 281 323 15,000  Level Seattle Center
Wed 08:43:28 PM 46.7769 -122.4203 180° South 285 328 15,000  Level Seattle Center
Wed 08:44:29 PM 46.6983 -122.4178 179° South 285 328 15,000  Level Seattle Center
Wed 08:45:30 PM 46.6203 -122.4161 179° South 282 325 15,000  Level Seattle Center
Wed 08:46:31 PM 46.5417 -122.4147 179° South 285 328 15,000 -49 Level Seattle Center
Wed 08:47:32 PM 46.4478 -122.4108 178° South 284 327 14,900 -448 Descending Seattle Center
Wed 08:48:45 PM 46.3481 -122.4133 181° South 282 325 14,000 -1,041 Descending Seattle Center
Wed 08:49:33 PM 46.2894 -122.4092 177° South 291 335 12,800 -1,707 Descending Seattle Center
Wed 08:50:41 PM 46.1889 -122.4081 180° South 304 350 10,700 -1,770 Descending Seattle Center
Wed 08:51:35 PM 46.1294 -122.4094 181° South 293 337 9,200 -1,884 Descending Seattle Center
Wed 08:52:42 PM 46.0378 -122.4336 190° South 263 303 6,900 -1,623 Descending Seattle Center
Wed 08:53:37 PM 45.9881 -122.4653 204° Southwest 267 307 5,900 -517 Descending Seattle Center
Wed 08:54:38 PM 45.9222 -122.4986 199° South 255 293 5,900  Level Seattle Center
Wed 08:55:39 PM 45.8586 -122.5322 200° South 248 285 5,900  Level Seattle Center
Wed 08:56:39 PM 45.7808 -122.5428 185° South 260 299 5,900 76 Level Seattle Center
Wed 08:56:58 PM 45.7661 -122.5272 144° Southeast 237 273 6,000  Climbing Seattle Center
Wed 08:57:40 PM 45.7333 -122.4839 137° Southeast 243 280 5,900  Descending Seattle Center
Wed 08:57:59 PM 45.7197 -122.4689 142° Southeast 222 255 6,000 -197 Climbing Seattle Center
Wed 08:58:41 PM 45.6858 -122.4272 139° Southeast 226 260 5,700 -700 Descending Seattle Center
Wed 08:58:59 PM 45.6686 -122.4094 144° Southeast 207 238 5,300 -1,397 Descending Seattle Center
Wed 08:59:54 PM 45.6283 -122.3706 146° Southeast 208 239 4,000 -981 Descending Seattle Center
Wed 09:00:43 PM 45.5892 -122.3758 185° South 199 229 3,600 -627 Descending Seattle Center
Wed 09:01:01 PM 45.5714 -122.3786 186° South 159 183 3,300 -885 Descending Seattle Center
Wed 09:01:44 PM 45.5439 -122.3919 199° South 175 201 2,700 -885 Descending Seattle Center
Wed 09:02:02 PM 45.5353 -122.4153 242° Southwest 174 200 2,400 -885 Descending Seattle Center
Wed 09:02:45 PM 45.5392 -122.4522 279° West 162 186 1,800 -837 Descending Seattle Center

Login

Don't have an account? Register now (free) for customized features, flight alerts, and more!